Main page
METAR-TAF:

METAR-TAF

Airports :

King Khalid International Airport

Riyadh, Saudi Arabia

latitude: 24-56N, longitude: 046-43E, elevation: 614 m

Current weather observation

The report was made 26 minutes ago, at 21:00 UTC
Wind 3 kt from the Northwest
Temperature 32°C
Humidity 17%
Pressure 1003 hPa
Visibility 10 km or more
no clouds below 1500 m and no cumulonimbus

METAR: OERK 052100Z 31003KT CAVOK 32/04 Q1003 NOSIG

Time: 00:26 (21:26 UTC)

Forecast

The report was made 4 hours and 26 minutes ago, at 17:00 UTC
Forecast valid from 05 at 18 UTC to 06 at 24 UTC
Wind 10 kt from the West/Northwest
Visibility: 7000 m
Becoming
from 06 at 06 UTC to 06 at 08 UTC
Wind 15 kt from the North
Visibility: 7000 m
Temporary
from 06 at 08 UTC to 06 at 16 UTC
Visibility: 4000 m
Blowing dust
Becoming
from 06 at 18 UTC to 06 at 20 UTC
Wind 6 kt from the West/Northwest

TAF: OERK 051700Z 0518/0624 30010KT 7000 NSC BECMG 0606/0608 36015KT 7000 NSC TEMPO 0608/0616 4000 BLDU BECMG 0618/0620 30006KT

Weather observations and forecasts of more than 4000 airports (METAR and TAF reports).

The available stations are represented by yellow and red dots on the map.

Hover mouse over dot to see the name of the station.

Then click to see weather observations and forecasts.

To change the map : click on the green buttons with a black cross to zoom in, on the green button with a dash to zoom out, or on the green arrows for adjacent maps.


METAR-TAF: